createdAt,value
2023-12-04T00:00:05.756Z,-0.19
2023-12-04T00:01:05.744Z,-0.16
2023-12-04T00:02:05.714Z,-0.18
2023-12-04T00:03:05.716Z,-0.19
2023-12-04T00:04:05.809Z,-0.16
2023-12-04T00:05:05.676Z,-0.16
2023-12-04T00:06:05.675Z,-0.18
2023-12-04T00:07:05.732Z,-0.16
2023-12-04T00:08:05.683Z,-0.15
2023-12-04T00:09:05.724Z,-0.15
2023-12-04T00:10:05.680Z,-0.15
2023-12-04T00:11:05.666Z,-0.13
2023-12-04T00:12:05.651Z,-0.18
2023-12-04T00:13:05.608Z,-0.18
2023-12-04T00:14:05.558Z,-0.19
2023-12-04T00:15:05.576Z,-0.22
2023-12-04T00:16:05.593Z,-0.19
2023-12-04T00:17:05.582Z,-0.19
2023-12-04T00:18:05.690Z,-0.22
2023-12-04T00:19:05.688Z,-0.22
2023-12-04T00:20:05.480Z,-0.24
2023-12-04T00:21:05.560Z,-0.24
2023-12-04T00:22:05.605Z,-0.27
2023-12-04T00:23:05.518Z,-0.26
2023-12-04T00:24:05.450Z,-0.27
2023-12-04T00:25:05.495Z,-0.26
2023-12-04T00:26:05.425Z,-0.24
2023-12-04T00:27:05.440Z,-0.22
2023-12-04T00:28:05.513Z,-0.22
2023-12-04T00:29:05.413Z,-0.19
2023-12-04T00:30:05.429Z,-0.18
2023-12-04T00:31:05.518Z,-0.16
2023-12-04T00:32:05.461Z,-0.19
2023-12-04T00:33:05.408Z,-0.19
2023-12-04T00:34:05.460Z,-0.16
2023-12-04T00:35:05.333Z,-0.13
2023-12-04T00:36:05.376Z,-0.15
2023-12-04T00:37:05.360Z,-0.13
2023-12-04T00:38:05.353Z,-0.12
2023-12-04T00:39:05.305Z,-0.13
2023-12-04T00:40:05.405Z,-0.12
2023-12-04T00:41:05.269Z,-0.09
2023-12-04T00:42:05.294Z,-0.11
2023-12-04T00:43:05.290Z,-0.11
2023-12-04T00:44:05.288Z,-0.09
2023-12-04T00:45:05.235Z,-0.09
2023-12-04T00:46:05.309Z,-0.09
2023-12-04T00:47:05.221Z,-0.11
2023-12-04T00:48:05.295Z,-0.09
2023-12-04T00:49:05.329Z,-0.06
2023-12-04T00:50:05.284Z,-0.08
2023-12-04T00:51:05.181Z,-0.08
2023-12-04T00:52:05.238Z,-0.08
2023-12-04T00:53:05.188Z,-0.08
2023-12-04T00:54:05.165Z,-0.08
2023-12-04T00:55:05.151Z,-0.06
2023-12-04T00:56:05.169Z,-0.08
2023-12-04T00:57:05.105Z,-0.08
2023-12-04T00:58:05.196Z,-0.06
2023-12-04T00:59:05.119Z,-0.04
2023-12-04T01:00:05.104Z,-0.01
2023-12-04T01:01:05.136Z,-0.01
2023-12-04T01:02:05.134Z,0.02
2023-12-04T01:03:05.091Z,-0.04
2023-12-04T01:04:05.106Z,-0.01
2023-12-04T01:05:05.036Z,-0.04
2023-12-04T01:06:05.065Z,-0.01
2023-12-04T01:07:05.084Z,-0.01
2023-12-04T01:08:05.072Z,0.02
2023-12-04T01:09:05.521Z,0.00
2023-12-04T01:10:05.082Z,-0.01
2023-12-04T01:11:06.972Z,0.00
2023-12-04T01:12:05.229Z,0.02
2023-12-04T01:13:04.978Z,0.00
2023-12-04T01:14:04.992Z,0.00
2023-12-04T01:15:04.905Z,0.02
2023-12-04T01:16:05.091Z,0.00
2023-12-04T01:17:04.895Z,0.02
2023-12-04T01:18:05.000Z,0.03
2023-12-04T01:19:04.970Z,0.05
2023-12-04T01:20:04.885Z,0.05
2023-12-04T01:21:04.856Z,0.06
2023-12-04T01:22:04.965Z,0.09
2023-12-04T01:23:05.744Z,0.09
2023-12-04T01:24:04.855Z,0.09
2023-12-04T01:25:04.906Z,0.09
2023-12-04T01:26:04.816Z,0.07
2023-12-04T01:27:04.791Z,0.06
2023-12-04T01:28:04.815Z,0.09
2023-12-04T01:29:04.779Z,0.09
2023-12-04T01:30:06.765Z,0.09
2023-12-04T01:31:04.948Z,0.10
2023-12-04T01:32:04.798Z,0.09
2023-12-04T01:33:04.787Z,0.12
2023-12-04T01:34:04.837Z,0.15
2023-12-04T01:35:04.709Z,0.16
2023-12-04T01:36:04.712Z,0.15
2023-12-04T01:37:04.738Z,0.15
2023-12-04T01:38:04.731Z,0.15
2023-12-04T01:39:04.654Z,0.16
2023-12-04T01:40:04.765Z,0.15
2023-12-04T01:41:04.650Z,0.15
2023-12-04T01:42:04.647Z,0.16
2023-12-04T01:43:04.707Z,0.15
2023-12-04T01:44:04.647Z,0.13
2023-12-04T01:45:04.616Z,0.13
2023-12-04T01:46:04.687Z,0.10
2023-12-04T01:47:04.605Z,0.07
2023-12-04T01:48:04.676Z,0.10
2023-12-04T01:49:04.730Z,0.10
2023-12-04T01:50:04.594Z,0.12
2023-12-04T01:51:04.533Z,0.10
2023-12-04T01:52:04.618Z,0.10
2023-12-04T01:53:04.527Z,0.10
2023-12-04T01:54:04.520Z,0.12
2023-12-04T01:55:04.561Z,0.13
2023-12-04T01:56:04.559Z,0.13
2023-12-04T01:57:04.473Z,0.12
2023-12-04T01:58:04.699Z,0.13
2023-12-04T01:59:04.470Z,0.13
2023-12-04T02:00:04.491Z,0.13
2023-12-04T02:01:04.456Z,0.16
2023-12-04T02:02:04.497Z,0.16
2023-12-04T02:03:04.427Z,0.18
2023-12-04T02:04:04.471Z,0.20
2023-12-04T02:05:04.438Z,0.18
2023-12-04T02:06:04.391Z,0.18
2023-12-04T02:07:04.386Z,0.18
2023-12-04T02:08:04.446Z,0.21
2023-12-04T02:09:04.364Z,0.21
2023-12-04T02:10:04.373Z,0.24
2023-12-04T02:11:04.328Z,0.23
2023-12-04T02:12:04.355Z,0.23
2023-12-04T02:13:04.375Z,0.20
2023-12-04T02:14:04.297Z,0.21
2023-12-04T02:15:04.313Z,0.21
2023-12-04T02:16:04.294Z,0.20
2023-12-04T02:17:04.253Z,0.20
2023-12-04T02:18:04.410Z,0.20
2023-12-04T02:19:04.329Z,0.20
2023-12-04T02:20:04.247Z,0.21
2023-12-04T02:21:04.244Z,0.23
2023-12-04T02:22:04.274Z,0.23
2023-12-04T02:23:04.319Z,0.23
2023-12-04T02:24:04.263Z,0.23
2023-12-04T02:25:04.211Z,0.23
2023-12-04T02:26:04.217Z,0.24
2023-12-04T02:27:04.159Z,0.23
2023-12-04T02:28:04.165Z,0.24
2023-12-04T02:29:04.137Z,0.24
2023-12-04T02:30:05.099Z,0.23
2023-12-04T02:31:04.174Z,0.25
2023-12-04T02:32:04.184Z,0.27
2023-12-04T02:33:04.168Z,0.27
2023-12-04T02:34:04.158Z,0.27
2023-12-04T02:35:04.076Z,0.27
2023-12-04T02:36:04.064Z,0.28
2023-12-04T02:37:04.177Z,0.28
2023-12-04T02:38:04.070Z,0.30
2023-12-04T02:39:04.014Z,0.30
2023-12-04T02:40:04.097Z,0.28
2023-12-04T02:41:04.013Z,0.24
2023-12-04T02:42:04.038Z,0.27
2023-12-04T02:43:04.051Z,0.24
2023-12-04T02:44:04.017Z,0.27
2023-12-04T02:45:03.948Z,0.27
2023-12-04T02:46:04.047Z,0.28
2023-12-04T02:47:03.949Z,0.28
2023-12-04T02:48:04.102Z,0.27
2023-12-04T02:49:03.937Z,0.28
2023-12-04T02:50:03.946Z,0.25
2023-12-04T02:51:03.883Z,0.24
2023-12-04T02:52:04.090Z,0.24
2023-12-04T02:53:03.885Z,0.23
2023-12-04T02:54:03.875Z,0.21
2023-12-04T02:55:03.936Z,0.20
2023-12-04T02:56:03.883Z,0.23
2023-12-04T02:57:03.814Z,0.23
2023-12-04T02:58:03.946Z,0.24
2023-12-04T02:59:03.803Z,0.24
2023-12-04T03:00:03.844Z,0.23
2023-12-04T03:01:04.760Z,0.25
2023-12-04T03:02:03.916Z,0.27
2023-12-04T03:03:03.812Z,0.25
2023-12-04T03:04:05.846Z,0.25
2023-12-04T03:05:03.739Z,0.24
2023-12-04T03:06:04.307Z,0.27
2023-12-04T03:07:03.799Z,0.27
2023-12-04T03:08:03.789Z,0.25
2023-12-04T03:09:03.707Z,0.25
2023-12-04T03:10:03.801Z,0.27
2023-12-04T03:11:03.719Z,0.30
2023-12-04T03:12:03.765Z,0.28
2023-12-04T03:13:03.782Z,0.25
2023-12-04T03:14:03.683Z,0.27
2023-12-04T03:15:03.667Z,0.24
2023-12-04T03:16:03.739Z,0.23
2023-12-04T03:17:03.672Z,0.21
2023-12-04T03:18:04.771Z,0.16
2023-12-04T03:19:03.755Z,0.21
2023-12-04T03:20:03.607Z,0.21
2023-12-04T03:21:03.687Z,0.18
2023-12-04T03:22:03.660Z,0.18
2023-12-04T03:23:03.565Z,0.16
2023-12-04T03:24:03.562Z,0.16
2023-12-04T03:25:03.578Z,0.16
2023-12-04T03:26:03.689Z,0.18
2023-12-04T03:27:03.529Z,0.18
2023-12-04T03:28:03.568Z,0.18
2023-12-04T03:29:03.515Z,0.20
2023-12-04T03:30:03.516Z,0.20
2023-12-04T03:31:03.547Z,0.20
2023-12-04T03:32:03.533Z,0.20
2023-12-04T03:33:03.671Z,0.15
2023-12-04T03:34:04.291Z,0.13
2023-12-04T03:35:03.428Z,0.15
2023-12-04T03:36:04.418Z,0.15
2023-12-04T03:37:03.415Z,0.16
2023-12-04T03:38:03.447Z,0.15
2023-12-04T03:39:03.388Z,0.18
2023-12-04T03:40:03.477Z,0.21
2023-12-04T03:41:03.362Z,0.21
2023-12-04T03:42:03.400Z,0.21
2023-12-04T03:43:03.397Z,0.24
2023-12-04T03:44:03.362Z,0.27
2023-12-04T03:45:03.329Z,0.27
2023-12-04T03:46:03.420Z,0.25
2023-12-04T03:47:03.293Z,0.25
2023-12-04T03:48:03.491Z,0.23
2023-12-04T03:49:03.354Z,0.21
2023-12-04T03:50:03.295Z,0.21
2023-12-04T03:51:03.285Z,0.18
2023-12-04T03:52:03.317Z,0.12
2023-12-04T03:53:03.273Z,0.12
2023-12-04T03:54:03.275Z,0.12
2023-12-04T03:55:03.304Z,0.12
2023-12-04T03:56:03.275Z,0.09
2023-12-04T03:57:03.193Z,0.10
2023-12-04T03:58:03.279Z,0.12
2023-12-04T03:59:03.207Z,0.13
2023-12-04T04:00:03.223Z,0.12
2023-12-04T04:01:03.177Z,0.12
2023-12-04T04:02:03.246Z,0.13
2023-12-04T04:03:03.223Z,0.12
2023-12-04T04:04:03.196Z,0.13
2023-12-04T04:05:03.130Z,0.16
2023-12-04T04:06:03.128Z,0.13
2023-12-04T04:07:03.201Z,0.13
2023-12-04T04:08:03.139Z,0.13
2023-12-04T04:09:03.094Z,0.12
2023-12-04T04:10:03.126Z,0.10
2023-12-04T04:11:03.072Z,0.10
2023-12-04T04:12:03.056Z,0.10
2023-12-04T04:13:03.075Z,0.09
2023-12-04T04:14:03.065Z,0.12
2023-12-04T04:15:03.006Z,0.12
2023-12-04T04:16:03.052Z,0.12
2023-12-04T04:17:02.985Z,0.10
2023-12-04T04:18:03.068Z,0.10
2023-12-04T04:19:03.038Z,0.12
2023-12-04T04:20:02.990Z,0.07
2023-12-04T04:21:02.948Z,0.07
2023-12-04T04:22:03.063Z,0.03
2023-12-04T04:23:02.908Z,0.02
2023-12-04T04:24:02.926Z,-0.04
2023-12-04T04:25:02.946Z,-0.04
2023-12-04T04:26:02.908Z,-0.04
2023-12-04T04:27:04.829Z,-0.08
2023-12-04T04:28:04.894Z,-0.05
2023-12-04T04:29:04.330Z,-0.05
2023-12-04T04:30:02.896Z,-0.04
2023-12-04T04:31:02.892Z,-0.05
2023-12-04T04:32:02.850Z,-0.05
2023-12-04T04:33:02.859Z,-0.08
2023-12-04T04:34:02.885Z,-0.06
2023-12-04T04:35:03.128Z,-0.11
2023-12-04T04:36:02.802Z,-0.08
2023-12-04T04:37:02.780Z,-0.06
2023-12-04T04:38:02.791Z,-0.06
2023-12-04T04:39:02.776Z,-0.08
2023-12-04T04:40:02.871Z,-0.08
2023-12-04T04:41:02.790Z,-0.09
2023-12-04T04:42:02.770Z,-0.09
2023-12-04T04:43:02.759Z,-0.11
2023-12-04T04:44:02.699Z,-0.09
2023-12-04T04:45:02.729Z,-0.12
2023-12-04T04:46:02.698Z,-0.13
2023-12-04T04:47:02.735Z,-0.15
2023-12-04T04:48:02.713Z,-0.18
2023-12-04T04:49:02.727Z,-0.19
2023-12-04T04:50:02.680Z,-0.18
2023-12-04T04:51:02.661Z,-0.18
2023-12-04T04:52:02.673Z,-0.18
2023-12-04T04:53:02.655Z,-0.16
2023-12-04T04:54:02.593Z,-0.15
2023-12-04T04:55:02.641Z,-0.15
2023-12-04T04:56:02.622Z,-0.15
2023-12-04T04:57:02.591Z,-0.15
2023-12-04T04:58:02.616Z,-0.16
2023-12-04T04:59:02.592Z,-0.16
2023-12-04T05:00:02.570Z,-0.16
2023-12-04T05:01:02.634Z,-0.16
2023-12-04T05:02:02.560Z,-0.15
2023-12-04T05:03:02.517Z,-0.13
2023-12-04T05:04:02.649Z,-0.13
2023-12-04T05:05:02.527Z,-0.13
2023-12-04T05:06:02.483Z,-0.16
2023-12-04T05:07:02.524Z,-0.15
2023-12-04T05:08:02.428Z,-0.16
2023-12-04T05:09:02.523Z,-0.18
2023-12-04T05:10:04.415Z,-0.19
2023-12-04T05:11:02.421Z,-0.22
2023-12-04T05:12:02.416Z,-0.19
2023-12-04T05:13:02.528Z,-0.18
2023-12-04T05:14:02.384Z,-0.19
2023-12-04T05:15:03.572Z,-0.18
2023-12-04T05:16:02.364Z,-0.15
2023-12-04T05:17:03.342Z,-0.13
2023-12-04T05:18:02.417Z,-0.15
2023-12-04T05:19:02.482Z,-0.13
2023-12-04T05:20:02.440Z,-0.12
2023-12-04T05:21:02.351Z,-0.13
2023-12-04T05:22:02.301Z,-0.13
2023-12-04T05:23:02.292Z,-0.13
2023-12-04T05:24:02.289Z,-0.15
2023-12-04T05:25:02.291Z,-0.16
2023-12-04T05:26:02.240Z,-0.12
2023-12-04T05:27:02.255Z,-0.13
2023-12-04T05:28:02.246Z,-0.11
2023-12-04T05:29:02.267Z,-0.12
2023-12-04T05:30:02.263Z,-0.12
2023-12-04T05:31:02.402Z,-0.16
2023-12-04T05:32:02.183Z,-0.16
2023-12-04T05:33:02.281Z,-0.15
2023-12-04T05:34:02.399Z,-0.13
2023-12-04T05:35:02.164Z,-0.13
2023-12-04T05:36:02.139Z,-0.13
2023-12-04T05:37:02.211Z,-0.12
2023-12-04T05:38:02.128Z,-0.11
2023-12-04T05:39:02.145Z,-0.12
2023-12-04T05:40:02.163Z,-0.09
2023-12-04T05:41:03.063Z,-0.08
2023-12-04T05:42:04.032Z,-0.06
2023-12-04T05:43:03.605Z,-0.09
2023-12-04T05:44:02.066Z,-0.06
2023-12-04T05:45:02.164Z,-0.06
2023-12-04T05:46:02.089Z,-0.05
2023-12-04T05:47:02.072Z,-0.08
2023-12-04T05:48:02.032Z,-0.08
2023-12-04T05:49:02.122Z,-0.06
2023-12-04T05:50:02.053Z,-0.06
2023-12-04T05:51:02.005Z,-0.06
2023-12-04T05:52:01.992Z,-0.06
2023-12-04T05:53:01.973Z,-0.04
2023-12-04T05:54:01.950Z,-0.05
2023-12-04T05:55:02.083Z,-0.08
2023-12-04T05:56:01.936Z,-0.08
2023-12-04T05:57:01.963Z,-0.08
2023-12-04T05:58:01.992Z,-0.06
2023-12-04T05:59:01.949Z,-0.06
2023-12-04T06:00:01.907Z,-0.06
2023-12-04T06:01:01.947Z,-0.04
2023-12-04T06:02:01.905Z,-0.04
2023-12-04T06:03:01.925Z,-0.05
2023-12-04T06:04:01.905Z,-0.01
2023-12-04T06:05:01.882Z,-0.01
2023-12-04T06:06:04.602Z,-0.01
2023-12-04T06:07:01.887Z,-0.01
2023-12-04T06:08:01.819Z,-0.01
2023-12-04T06:09:01.852Z,0.00
2023-12-04T06:10:01.887Z,-0.01
2023-12-04T06:11:01.800Z,0.00
2023-12-04T06:12:01.759Z,-0.01
2023-12-04T06:13:01.834Z,0.00
2023-12-04T06:14:01.759Z,0.02
2023-12-04T06:15:01.845Z,0.02
2023-12-04T06:16:01.795Z,0.00
2023-12-04T06:17:01.804Z,0.00
2023-12-04T06:18:01.996Z,0.00
2023-12-04T06:19:02.085Z,-0.01
2023-12-04T06:20:01.714Z,-0.01
2023-12-04T06:21:01.704Z,-0.01
2023-12-04T06:22:01.727Z,-0.04
2023-12-04T06:23:01.679Z,0.00
2023-12-04T06:24:04.790Z,0.00
2023-12-04T06:25:02.203Z,-0.01
2023-12-04T06:26:02.856Z,-0.04
2023-12-04T06:27:02.059Z,-0.04
2023-12-04T06:28:02.055Z,-0.05
2023-12-04T06:29:01.674Z,-0.04
2023-12-04T06:30:01.579Z,-0.06
2023-12-04T06:31:02.121Z,-0.08
2023-12-04T06:32:01.574Z,-0.08
2023-12-04T06:33:01.614Z,-0.08
2023-12-04T06:34:01.614Z,-0.06
2023-12-04T06:35:01.603Z,-0.06
2023-12-04T06:36:01.514Z,-0.06
2023-12-04T06:37:01.548Z,-0.08
2023-12-04T06:38:01.483Z,-0.05
2023-12-04T06:39:01.527Z,-0.08
2023-12-04T06:40:01.514Z,-0.11
2023-12-04T06:41:01.473Z,-0.09
2023-12-04T06:42:01.481Z,-0.09
2023-12-04T06:43:01.529Z,-0.09
2023-12-04T06:44:01.428Z,-0.09
2023-12-04T06:45:01.665Z,-0.11
2023-12-04T06:46:01.472Z,-0.09
2023-12-04T06:47:01.410Z,-0.11
2023-12-04T06:48:01.496Z,-0.11
2023-12-04T06:49:01.482Z,-0.09
2023-12-04T06:50:01.376Z,-0.09
2023-12-04T06:51:01.393Z,-0.11
2023-12-04T06:52:01.468Z,-0.09
2023-12-04T06:53:01.404Z,-0.09
2023-12-04T06:54:01.374Z,-0.08
2023-12-04T06:55:01.352Z,-0.05
2023-12-04T06:56:01.328Z,-0.08
2023-12-04T06:57:01.352Z,-0.08
2023-12-04T06:58:01.337Z,-0.09
2023-12-04T06:59:01.316Z,-0.12
2023-12-04T07:00:01.269Z,-0.12
2023-12-04T07:01:01.329Z,-0.12
2023-12-04T07:02:01.310Z,-0.16
2023-12-04T07:03:01.272Z,-0.18
2023-12-04T07:04:01.421Z,-0.16
2023-12-04T07:05:01.233Z,-0.18
2023-12-04T07:06:01.488Z,-0.15
2023-12-04T07:07:01.301Z,-0.15
2023-12-04T07:08:01.178Z,-0.13
2023-12-04T07:09:01.196Z,-0.15
2023-12-04T07:10:01.220Z,-0.16
2023-12-04T07:11:01.159Z,-0.18
2023-12-04T07:12:01.150Z,-0.18
2023-12-04T07:13:01.175Z,-0.16
2023-12-04T07:14:01.112Z,-0.15
2023-12-04T07:15:01.142Z,-0.12
2023-12-04T07:16:01.176Z,-0.16
2023-12-04T07:17:01.143Z,-0.13
2023-12-04T07:18:01.152Z,-0.12
2023-12-04T07:19:01.151Z,-0.12
2023-12-04T07:20:01.062Z,-0.13
2023-12-04T07:21:01.061Z,-0.12
2023-12-04T07:22:01.071Z,-0.12
2023-12-04T07:23:01.148Z,-0.12
2023-12-04T07:24:01.012Z,-0.12
2023-12-04T07:25:01.042Z,-0.12
2023-12-04T07:26:01.016Z,-0.11
2023-12-04T07:27:00.991Z,-0.11
2023-12-04T07:28:01.071Z,-0.12
2023-12-04T07:29:01.000Z,-0.09
2023-12-04T07:30:00.936Z,-0.11
2023-12-04T07:31:01.006Z,-0.08
2023-12-04T07:32:00.924Z,-0.06
2023-12-04T07:33:00.984Z,-0.04
2023-12-04T07:34:01.012Z,-0.04
2023-12-04T07:35:00.994Z,-0.01
2023-12-04T07:36:00.882Z,-0.01
2023-12-04T07:37:00.898Z,0.00
2023-12-04T07:38:00.910Z,0.00
2023-12-04T07:39:00.885Z,0.02
2023-12-04T07:40:00.929Z,0.03
2023-12-04T07:41:00.832Z,0.03
2023-12-04T07:42:12.075Z,0.00
2023-12-04T07:43:01.913Z,0.00
2023-12-04T07:44:00.812Z,0.00
2023-12-04T07:45:00.833Z,-0.01
2023-12-04T07:46:00.827Z,-0.01
2023-12-04T07:47:00.779Z,0.00
2023-12-04T07:48:00.811Z,0.02
2023-12-04T07:49:00.896Z,0.05
2023-12-04T07:50:00.835Z,0.05
2023-12-04T07:51:00.758Z,0.06
2023-12-04T07:52:00.758Z,0.09
2023-12-04T07:53:00.757Z,0.09
2023-12-04T07:54:04.165Z,0.12
2023-12-04T07:55:00.847Z,0.16
2023-12-04T07:56:00.659Z,0.15
2023-12-04T07:57:02.721Z,0.18
2023-12-04T07:58:00.724Z,0.16
2023-12-04T07:59:00.651Z,0.20
2023-12-04T08:00:00.815Z,0.16
2023-12-04T08:01:00.796Z,0.16
2023-12-04T08:02:00.955Z,0.21
2023-12-04T08:03:00.728Z,0.21
2023-12-04T08:04:00.702Z,0.23
2023-12-04T08:05:00.598Z,0.25
2023-12-04T08:06:00.562Z,0.27
2023-12-04T08:07:00.625Z,0.30
2023-12-04T08:08:00.535Z,0.31
2023-12-04T08:09:00.573Z,0.33
2023-12-04T08:10:00.618Z,0.34
2023-12-04T08:11:00.603Z,0.34
2023-12-04T08:12:00.541Z,0.38
2023-12-04T08:13:00.592Z,0.34
2023-12-04T08:14:02.454Z,0.38
2023-12-04T08:15:00.503Z,0.39
2023-12-04T08:16:00.509Z,0.41
2023-12-04T08:17:00.462Z,0.42
2023-12-04T08:18:00.470Z,0.46
2023-12-04T08:19:00.611Z,0.46
2023-12-04T08:20:00.801Z,0.46
2023-12-04T08:21:00.521Z,0.45
2023-12-04T08:22:00.400Z,0.45
2023-12-04T08:23:00.427Z,0.48
2023-12-04T08:24:00.371Z,0.49
2023-12-04T08:25:00.434Z,0.51
2023-12-04T08:26:01.576Z,0.49
2023-12-04T08:27:00.381Z,0.49
2023-12-04T08:28:00.443Z,0.48
2023-12-04T08:29:00.328Z,0.49
2023-12-04T08:30:00.372Z,0.49
2023-12-04T08:31:00.365Z,0.51
2023-12-04T08:32:00.285Z,0.48
2023-12-04T08:33:00.457Z,0.46
2023-12-04T08:34:00.317Z,0.43
2023-12-04T08:35:00.269Z,0.45
2023-12-04T08:36:00.362Z,0.45
2023-12-04T08:37:00.349Z,0.48
2023-12-04T08:38:00.515Z,0.49
2023-12-04T08:39:00.265Z,0.48
2023-12-04T08:40:00.314Z,0.52
2023-12-04T08:41:00.239Z,0.48
2023-12-04T08:42:03.590Z,0.48
2023-12-04T08:43:01.300Z,0.48
2023-12-04T08:44:00.259Z,0.48
2023-12-04T08:45:00.292Z,0.48
2023-12-04T08:46:00.171Z,0.51
2023-12-04T08:47:00.211Z,0.52
2023-12-04T08:48:00.207Z,0.52
2023-12-04T08:49:02.131Z,0.53
2023-12-04T08:50:00.175Z,0.53
2023-12-04T08:51:00.090Z,0.57
2023-12-04T08:52:00.133Z,0.57
2023-12-04T08:53:00.079Z,0.52
2023-12-04T08:54:00.035Z,0.53
2023-12-04T08:55:00.334Z,0.57
2023-12-04T08:56:00.054Z,0.58
2023-12-04T08:57:00.045Z,0.61
2023-12-04T08:58:00.103Z,0.62
2023-12-04T08:59:00.536Z,0.64
2023-12-04T08:59:59.992Z,0.64
2023-12-04T09:00:59.985Z,0.67
2023-12-04T09:02:00.101Z,0.67
2023-12-04T09:03:08.244Z,0.70
2023-12-04T09:04:01.183Z,0.71
2023-12-04T09:05:00.339Z,0.71
2023-12-04T09:06:00.108Z,0.75
2023-12-04T09:08:29.615Z,0.78
2023-12-04T09:09:07.144Z,0.79
2023-12-04T09:10:05.562Z,0.80
2023-12-04T09:11:11.058Z,0.82
2023-12-04T09:12:00.903Z,0.82
2023-12-04T09:13:00.556Z,0.83
2023-12-04T09:13:59.872Z,0.82
2023-12-04T09:14:59.854Z,0.83
2023-12-04T09:15:59.834Z,0.83
2023-12-04T09:16:59.795Z,0.83
2023-12-04T09:17:59.822Z,0.86
2023-12-04T09:18:59.852Z,0.86
2023-12-04T09:19:59.974Z,0.85
2023-12-04T09:20:59.781Z,0.83
2023-12-04T09:22:08.357Z,0.83
2023-12-04T09:23:06.671Z,0.82
2023-12-04T09:24:00.733Z,0.83
2023-12-04T09:24:59.764Z,0.83
2023-12-04T09:25:59.758Z,0.83
2023-12-04T09:26:59.693Z,0.82
2023-12-04T09:27:59.703Z,0.83
2023-12-04T09:28:59.660Z,0.85
2023-12-04T09:29:59.668Z,0.86
2023-12-04T09:30:59.706Z,0.89
2023-12-04T09:31:59.777Z,0.89
2023-12-04T09:32:59.763Z,0.90
2023-12-04T09:33:59.710Z,0.90
2023-12-04T09:34:59.603Z,0.90
2023-12-04T09:35:59.640Z,0.92
2023-12-04T09:37:06.166Z,0.90
2023-12-04T09:38:00.610Z,0.90
2023-12-04T09:38:59.625Z,0.90
2023-12-04T09:40:02.046Z,0.90
2023-12-04T09:40:59.573Z,0.94
2023-12-04T09:42:01.514Z,0.92
2023-12-04T09:42:59.548Z,0.89
2023-12-04T09:43:59.521Z,0.85
2023-12-04T09:44:59.644Z,0.85
2023-12-04T09:45:59.505Z,0.86
2023-12-04T09:46:59.514Z,0.88
2023-12-04T09:47:59.582Z,0.90
2023-12-04T09:48:59.763Z,0.90
2023-12-04T09:49:59.745Z,0.92
2023-12-04T09:51:00.317Z,0.96
2023-12-04T09:51:59.469Z,0.94
2023-12-04T09:52:59.408Z,0.94
2023-12-04T09:53:59.413Z,0.97
2023-12-04T09:54:59.379Z,0.98
2023-12-04T09:55:59.455Z,1.01
2023-12-04T09:56:59.576Z,1.01
2023-12-04T09:57:59.404Z,1.06
2023-12-04T09:58:59.346Z,1.06
2023-12-04T09:59:59.364Z,1.06
2023-12-04T10:00:59.355Z,1.03
2023-12-04T10:01:59.386Z,1.01
2023-12-04T10:02:59.409Z,1.06
2023-12-04T10:03:59.396Z,1.04
2023-12-04T10:04:59.397Z,1.07
2023-12-04T10:05:59.455Z,1.08
2023-12-04T10:06:59.400Z,1.14
2023-12-04T10:07:59.484Z,1.12
2023-12-04T10:08:59.336Z,1.14
2023-12-04T10:10:01.209Z,1.15
2023-12-04T10:10:59.484Z,1.16
2023-12-04T10:11:59.453Z,1.18
2023-12-04T10:12:59.671Z,1.19
2023-12-04T10:14:01.238Z,1.18
2023-12-04T10:15:01.168Z,1.18
2023-12-04T10:16:00.208Z,1.18
2023-12-04T10:16:59.949Z,1.18
2023-12-04T10:18:01.162Z,1.21
2023-12-04T10:19:01.165Z,1.22
2023-12-04T10:20:01.123Z,1.16
2023-12-04T10:21:01.063Z,1.15
2023-12-04T10:22:01.581Z,1.15
2023-12-04T10:22:59.718Z,1.16
2023-12-04T10:24:01.112Z,1.21
2023-12-04T10:25:01.048Z,1.21
2023-12-04T10:26:01.059Z,1.22
2023-12-04T10:27:01.016Z,1.22
2023-12-04T10:28:01.040Z,1.25
2023-12-04T10:28:59.090Z,1.29
2023-12-04T10:29:59.037Z,1.32
2023-12-04T10:30:59.050Z,1.26
2023-12-04T10:31:59.773Z,1.26
2023-12-04T10:32:59.048Z,1.26
2023-12-04T10:33:59.159Z,1.26
2023-12-04T10:34:58.959Z,1.24
2023-12-04T10:35:59.001Z,1.25
2023-12-04T10:36:58.937Z,1.28
2023-12-04T10:37:58.974Z,1.33
2023-12-04T10:38:59.924Z,1.36
2023-12-04T10:39:58.942Z,1.34
2023-12-04T10:40:59.144Z,1.36
2023-12-04T10:41:59.086Z,1.39
2023-12-04T10:42:58.878Z,1.37
2023-12-04T10:44:04.440Z,1.40
2023-12-04T10:44:59.849Z,1.42
2023-12-04T10:45:58.877Z,1.44
2023-12-04T10:46:58.832Z,1.44
2023-12-04T10:47:58.891Z,1.46
2023-12-04T10:48:58.916Z,1.47
2023-12-04T10:49:58.942Z,1.50
2023-12-04T10:50:58.791Z,1.50
2023-12-04T10:51:58.831Z,1.47
2023-12-04T10:52:59.123Z,1.46
2023-12-04T10:53:58.819Z,1.43
2023-12-04T10:54:58.791Z,1.40
2023-12-04T10:55:58.792Z,1.42
2023-12-04T10:57:01.222Z,1.42
2023-12-04T10:57:59.703Z,1.42
2023-12-04T10:58:58.924Z,1.44
2023-12-04T10:59:58.731Z,1.46
2023-12-04T11:00:58.797Z,1.47
2023-12-04T11:01:58.744Z,1.51
2023-12-04T11:02:58.708Z,1.50
2023-12-04T11:03:58.750Z,1.54
2023-12-04T11:04:58.645Z,1.54
2023-12-04T11:05:58.675Z,1.54
2023-12-04T11:06:58.662Z,1.58
2023-12-04T11:08:14.496Z,1.58
2023-12-04T11:08:59.618Z,1.58
2023-12-04T11:09:58.874Z,1.58
2023-12-04T11:10:58.584Z,1.58
2023-12-04T11:11:58.785Z,1.57
2023-12-04T11:12:58.679Z,1.61
2023-12-04T11:13:58.572Z,1.62
2023-12-04T11:14:58.550Z,1.60
2023-12-04T11:15:58.540Z,1.61
2023-12-04T11:16:58.522Z,1.61
2023-12-04T11:17:58.555Z,1.62
2023-12-04T11:18:58.606Z,1.64
2023-12-04T11:19:58.619Z,1.65
2023-12-04T11:20:58.503Z,1.65
2023-12-04T11:22:00.491Z,1.68
2023-12-04T11:22:58.466Z,1.71
2023-12-04T11:23:58.482Z,1.71
2023-12-04T11:24:58.450Z,1.75
2023-12-04T11:25:58.474Z,1.78
2023-12-04T11:26:58.403Z,1.78
2023-12-04T11:27:58.445Z,1.78
2023-12-04T11:28:58.393Z,1.80
2023-12-04T11:29:58.383Z,1.80
2023-12-04T11:30:58.396Z,1.79
2023-12-04T11:31:58.396Z,1.79
2023-12-04T11:32:58.389Z,1.79
2023-12-04T11:33:58.437Z,1.80
2023-12-04T11:34:58.306Z,1.82
2023-12-04T11:35:58.327Z,1.79
2023-12-04T11:36:58.332Z,1.80
2023-12-04T11:37:58.331Z,1.79
2023-12-04T11:38:58.278Z,1.79
2023-12-04T11:39:58.289Z,1.80
2023-12-04T11:40:58.260Z,1.80
2023-12-04T11:41:58.282Z,1.82
2023-12-04T11:43:00.194Z,1.83
2023-12-04T11:43:59.053Z,1.80
2023-12-04T11:44:58.213Z,1.80
2023-12-04T11:45:58.214Z,1.79
2023-12-04T11:46:58.255Z,1.75
2023-12-04T11:47:58.297Z,1.76
2023-12-04T11:48:58.404Z,1.78
2023-12-04T11:49:58.183Z,1.78
2023-12-04T11:50:58.139Z,1.82
2023-12-04T11:51:58.194Z,1.79
2023-12-04T11:52:58.114Z,1.78
2023-12-04T11:53:58.149Z,1.78
2023-12-04T11:54:58.111Z,1.78
2023-12-04T11:55:58.166Z,1.76
2023-12-04T11:56:58.100Z,1.76
2023-12-04T11:57:58.097Z,1.76
2023-12-04T11:58:58.059Z,1.78
2023-12-04T11:59:58.083Z,1.79
2023-12-04T12:00:58.329Z,1.82
2023-12-04T12:01:58.147Z,1.80
2023-12-04T12:03:16.476Z,1.79
2023-12-04T12:03:59.254Z,1.79
2023-12-04T12:04:58.105Z,1.80
2023-12-04T12:05:58.268Z,1.82
2023-12-04T12:06:58.018Z,1.82
2023-12-04T12:07:57.993Z,1.87
2023-12-04T12:08:57.930Z,1.85
2023-12-04T12:09:57.991Z,1.87
2023-12-04T12:10:57.933Z,1.89
2023-12-04T12:11:57.945Z,1.87
2023-12-04T12:12:57.921Z,1.91
2023-12-04T12:13:57.903Z,1.90
2023-12-04T12:14:57.914Z,1.90
2023-12-04T12:15:57.883Z,1.90
2023-12-04T12:16:57.861Z,1.93
2023-12-04T12:17:57.960Z,1.91
2023-12-04T12:18:57.906Z,1.89
2023-12-04T12:19:57.880Z,1.90
2023-12-04T12:20:57.802Z,1.91
2023-12-04T12:21:57.829Z,1.94
2023-12-04T12:22:57.791Z,1.97
2023-12-04T12:23:58.504Z,1.97
2023-12-04T12:24:57.781Z,1.98
2023-12-04T12:25:57.805Z,1.98
2023-12-04T12:26:57.826Z,1.98
2023-12-04T12:27:58.019Z,1.99
2023-12-04T12:28:58.730Z,1.99
2023-12-04T12:29:57.737Z,1.99
2023-12-04T12:30:57.736Z,2.01
2023-12-04T12:31:57.772Z,2.02
2023-12-04T12:32:57.785Z,2.02
2023-12-04T12:33:58.785Z,2.02
2023-12-04T12:34:57.702Z,2.04
2023-12-04T12:36:03.077Z,2.02
2023-12-04T12:36:58.735Z,2.04
2023-12-04T12:37:57.662Z,2.02
2023-12-04T12:38:57.702Z,2.02
2023-12-04T12:39:57.639Z,1.99
2023-12-04T12:40:57.652Z,1.99
2023-12-04T12:41:57.618Z,1.99
2023-12-04T12:43:00.900Z,2.01
2023-12-04T12:43:58.599Z,1.98
2023-12-04T12:44:57.569Z,1.98
2023-12-04T12:45:57.584Z,2.01
2023-12-04T12:46:57.549Z,2.01
2023-12-04T12:47:57.648Z,2.01
2023-12-04T12:48:57.580Z,2.01
2023-12-04T12:49:57.630Z,2.01
2023-12-04T12:50:57.505Z,2.01
2023-12-04T12:51:57.514Z,2.02
2023-12-04T12:52:57.501Z,2.02
2023-12-04T12:53:57.696Z,2.02
2023-12-04T12:54:57.463Z,2.02
2023-12-04T12:55:57.496Z,2.02
2023-12-04T12:56:57.424Z,1.98
2023-12-04T12:57:57.424Z,1.98
2023-12-04T12:58:57.391Z,1.98
2023-12-04T12:59:59.218Z,1.98
2023-12-04T13:00:57.559Z,1.98
2023-12-04T13:01:57.612Z,1.98
2023-12-04T13:02:57.502Z,1.98
2023-12-04T13:03:57.528Z,1.97
2023-12-04T13:04:57.637Z,1.97
2023-12-04T13:05:57.403Z,1.97
2023-12-04T13:06:57.587Z,1.99
2023-12-04T13:07:57.333Z,2.01
2023-12-04T13:08:57.349Z,1.99
2023-12-04T13:09:57.329Z,2.01
2023-12-04T13:10:57.275Z,1.99